sensor_id;sensor_type;location;lat;lon;timestamp;temperature;humidity
10660;DHT22;5378;53.206;13.316;2023-04-01T00:00:56;10.70;99.90
10660;DHT22;5378;53.206;13.316;2023-04-01T00:03:45;10.70;99.90
10660;DHT22;5378;53.206;13.316;2023-04-01T00:06:32;10.70;99.90
10660;DHT22;5378;53.206;13.316;2023-04-01T00:09:20;10.70;99.90
10660;DHT22;5378;53.206;13.316;2023-04-01T00:12:07;10.70;99.90
10660;DHT22;5378;53.206;13.316;2023-04-01T00:14:53;10.70;99.90
10660;DHT22;5378;53.206;13.316;2023-04-01T00:17:40;10.70;99.90
10660;DHT22;5378;53.206;13.316;2023-04-01T00:20:29;10.70;99.90
10660;DHT22;5378;53.206;13.316;2023-04-01T00:23:17;10.70;99.90
10660;DHT22;5378;53.206;13.316;2023-04-01T00:26:04;10.70;99.90
10660;DHT22;5378;53.206;13.316;2023-04-01T00:28:51;10.70;99.90
10660;DHT22;5378;53.206;13.316;2023-04-01T00:31:39;10.70;99.90
10660;DHT22;5378;53.206;13.316;2023-04-01T00:34:26;10.70;99.90
10660;DHT22;5378;53.206;13.316;2023-04-01T00:37:15;10.70;99.90
10660;DHT22;5378;53.206;13.316;2023-04-01T00:40:02;10.70;99.90
10660;DHT22;5378;53.206;13.316;2023-04-01T00:42:50;10.70;99.90
10660;DHT22;5378;53.206;13.316;2023-04-01T00:45:39;10.70;99.90
10660;DHT22;5378;53.206;13.316;2023-04-01T00:48:28;10.70;99.90
10660;DHT22;5378;53.206;13.316;2023-04-01T00:51:20;10.70;99.90
10660;DHT22;5378;53.206;13.316;2023-04-01T00:54:09;10.60;99.90
10660;DHT22;5378;53.206;13.316;2023-04-01T00:56:59;10.60;99.90
10660;DHT22;5378;53.206;13.316;2023-04-01T00:59:49;10.70;99.90
10660;DHT22;5378;53.206;13.316;2023-04-01T01:02:38;10.70;99.90
10660;DHT22;5378;53.206;13.316;2023-04-01T01:05:38;10.70;99.90
10660;DHT22;5378;53.206;13.316;2023-04-01T01:08:44;10.70;99.90
10660;DHT22;5378;53.206;13.316;2023-04-01T01:11:37;10.70;99.90
10660;DHT22;5378;53.206;13.316;2023-04-01T01:14:36;10.70;99.90
10660;DHT22;5378;53.206;13.316;2023-04-01T01:17:33;10.70;99.90
10660;DHT22;5378;53.206;13.316;2023-04-01T01:20:36;10.60;99.90
10660;DHT22;5378;53.206;13.316;2023-04-01T01:26:54;10.70;99.90
10660;DHT22;5378;53.206;13.316;2023-04-01T01:30:11;10.70;99.90
10660;DHT22;5378;53.206;13.316;2023-04-01T01:33:13;10.70;99.90
10660;DHT22;5378;53.206;13.316;2023-04-01T01:36:09;10.70;99.90
10660;DHT22;5378;53.206;13.316;2023-04-01T01:38:58;10.70;99.90
10660;DHT22;5378;53.206;13.316;2023-04-01T01:41:46;10.70;99.90
10660;DHT22;5378;53.206;13.316;2023-04-01T01:44:35;10.70;99.90
10660;DHT22;5378;53.206;13.316;2023-04-01T01:47:25;10.70;99.90
10660;DHT22;5378;53.206;13.316;2023-04-01T01:50:14;10.80;99.90
10660;DHT22;5378;53.206;13.316;2023-04-01T01:53:05;10.80;99.90
10660;DHT22;5378;53.206;13.316;2023-04-01T01:55:52;10.80;99.90
10660;DHT22;5378;53.206;13.316;2023-04-01T01:58:43;10.80;99.90
10660;DHT22;5378;53.206;13.316;2023-04-01T02:01:35;10.60;99.90
10660;DHT22;5378;53.206;13.316;2023-04-01T02:04:29;10.60;99.90
10660;DHT22;5378;53.206;13.316;2023-04-01T02:07:19;10.40;99.90
10660;DHT22;5378;53.206;13.316;2023-04-01T02:10:09;10.40;99.90
10660;DHT22;5378;53.206;13.316;2023-04-01T02:12:59;10.30;99.90
10660;DHT22;5378;53.206;13.316;2023-04-01T02:15:50;10.10;99.90
10660;DHT22;5378;53.206;13.316;2023-04-01T02:18:43;10.00;99.90
10660;DHT22;5378;53.206;13.316;2023-04-01T02:21:32;9.90;99.90
10660;DHT22;5378;53.206;13.316;2023-04-01T02:24:19;9.70;99.90
10660;DHT22;5378;53.206;13.316;2023-04-01T02:27:10;9.60;99.90
10660;DHT22;5378;53.206;13.316;2023-04-01T02:29:57;9.60;99.90
10660;DHT22;5378;53.206;13.316;2023-04-01T02:32:46;9.40;99.90
10660;DHT22;5378;53.206;13.316;2023-04-01T02:35:34;9.00;99.90
10660;DHT22;5378;53.206;13.316;2023-04-01T02:38:22;8.70;99.90
10660;DHT22;5378;53.206;13.316;2023-04-01T02:41:10;8.60;99.90
10660;DHT22;5378;53.206;13.316;2023-04-01T02:43:58;8.40;99.90
10660;DHT22;5378;53.206;13.316;2023-04-01T02:46:45;8.30;99.90
10660;DHT22;5378;53.206;13.316;2023-04-01T02:49:32;8.20;99.90
10660;DHT22;5378;53.206;13.316;2023-04-01T02:52:19;7.90;99.90
10660;DHT22;5378;53.206;13.316;2023-04-01T02:55:06;7.90;99.90
10660;DHT22;5378;53.206;13.316;2023-04-01T02:57:53;8.00;99.90
10660;DHT22;5378;53.206;13.316;2023-04-01T03:00:41;8.00;99.90
10660;DHT22;5378;53.206;13.316;2023-04-01T03:03:28;8.10;99.90
10660;DHT22;5378;53.206;13.316;2023-04-01T03:06:16;8.10;99.90
10660;DHT22;5378;53.206;13.316;2023-04-01T03:09:03;8.00;99.90
10660;DHT22;5378;53.206;13.316;2023-04-01T03:11:50;7.90;99.90
10660;DHT22;5378;53.206;13.316;2023-04-01T03:14:37;7.90;99.90
10660;DHT22;5378;53.206;13.316;2023-04-01T03:17:25;7.70;99.90
10660;DHT22;5378;53.206;13.316;2023-04-01T03:20:13;7.70;99.90
10660;DHT22;5378;53.206;13.316;2023-04-01T03:23:00;7.70;99.90
10660;DHT22;5378;53.206;13.316;2023-04-01T03:25:47;7.70;99.90
10660;DHT22;5378;53.206;13.316;2023-04-01T03:28:34;7.60;99.90
10660;DHT22;5378;53.206;13.316;2023-04-01T03:31:21;7.60;99.90
10660;DHT22;5378;53.206;13.316;2023-04-01T03:34:13;7.60;99.90
10660;DHT22;5378;53.206;13.316;2023-04-01T03:37:00;7.60;99.90
10660;DHT22;5378;53.206;13.316;2023-04-01T03:39:47;7.60;99.90
10660;DHT22;5378;53.206;13.316;2023-04-01T03:42:34;7.70;99.90
10660;DHT22;5378;53.206;13.316;2023-04-01T03:45:21;7.60;99.90
10660;DHT22;5378;53.206;13.316;2023-04-01T03:48:08;7.60;99.90
10660;DHT22;5378;53.206;13.316;2023-04-01T03:50:57;7.70;99.90
10660;DHT22;5378;53.206;13.316;2023-04-01T03:53:44;7.50;99.90
10660;DHT22;5378;53.206;13.316;2023-04-01T03:56:31;7.40;99.90
10660;DHT22;5378;53.206;13.316;2023-04-01T03:59:17;7.30;99.90
10660;DHT22;5378;53.206;13.316;2023-04-01T04:02:04;7.20;99.90
10660;DHT22;5378;53.206;13.316;2023-04-01T04:04:52;7.30;99.90
10660;DHT22;5378;53.206;13.316;2023-04-01T04:07:41;7.40;99.90
10660;DHT22;5378;53.206;13.316;2023-04-01T04:10:28;7.40;99.90
10660;DHT22;5378;53.206;13.316;2023-04-01T04:13:14;7.50;99.90
10660;DHT22;5378;53.206;13.316;2023-04-01T04:16:09;7.50;99.90
10660;DHT22;5378;53.206;13.316;2023-04-01T04:19:01;7.30;99.90
10660;DHT22;5378;53.206;13.316;2023-04-01T04:21:48;7.40;99.90
10660;DHT22;5378;53.206;13.316;2023-04-01T04:24:37;7.30;99.90
10660;DHT22;5378;53.206;13.316;2023-04-01T04:27:30;7.30;99.90
10660;DHT22;5378;53.206;13.316;2023-04-01T04:30:25;7.30;99.90
10660;DHT22;5378;53.206;13.316;2023-04-01T04:33:12;7.20;99.90
10660;DHT22;5378;53.206;13.316;2023-04-01T04:35:59;7.10;99.90
10660;DHT22;5378;53.206;13.316;2023-04-01T04:38:47;7.10;99.90
10660;DHT22;5378;53.206;13.316;2023-04-01T04:41:37;7.10;99.90
10660;DHT22;5378;53.206;13.316;2023-04-01T04:44:24;7.10;99.90
10660;DHT22;5378;53.206;13.316;2023-04-01T04:47:11;7.20;99.90
10660;DHT22;5378;53.206;13.316;2023-04-01T04:49:57;7.20;99.90
10660;DHT22;5378;53.206;13.316;2023-04-01T04:52:44;7.30;99.90
10660;DHT22;5378;53.206;13.316;2023-04-01T04:55:31;7.00;99.90
10660;DHT22;5378;53.206;13.316;2023-04-01T04:58:38;7.10;99.90
10660;DHT22;5378;53.206;13.316;2023-04-01T05:01:27;7.10;99.90
10660;DHT22;5378;53.206;13.316;2023-04-01T05:04:14;7.10;99.90
10660;DHT22;5378;53.206;13.316;2023-04-01T05:07:01;7.10;99.90
10660;DHT22;5378;53.206;13.316;2023-04-01T05:09:49;7.00;99.90
10660;DHT22;5378;53.206;13.316;2023-04-01T05:12:36;6.90;99.90
10660;DHT22;5378;53.206;13.316;2023-04-01T05:15:27;6.70;99.90
10660;DHT22;5378;53.206;13.316;2023-04-01T05:18:14;6.70;99.90
10660;DHT22;5378;53.206;13.316;2023-04-01T05:21:01;6.90;99.90
10660;DHT22;5378;53.206;13.316;2023-04-01T05:23:48;6.70;99.90
10660;DHT22;5378;53.206;13.316;2023-04-01T05:26:36;6.80;99.90
10660;DHT22;5378;53.206;13.316;2023-04-01T05:29:23;6.90;99.90
10660;DHT22;5378;53.206;13.316;2023-04-01T05:32:17;6.90;99.90
10660;DHT22;5378;53.206;13.316;2023-04-01T05:35:05;7.00;99.90
10660;DHT22;5378;53.206;13.316;2023-04-01T05:37:53;7.00;99.90
10660;DHT22;5378;53.206;13.316;2023-04-01T05:40:40;6.90;99.90
10660;DHT22;5378;53.206;13.316;2023-04-01T05:43:28;6.90;99.90
10660;DHT22;5378;53.206;13.316;2023-04-01T05:46:19;6.80;99.90
10660;DHT22;5378;53.206;13.316;2023-04-01T05:49:15;6.60;99.90
10660;DHT22;5378;53.206;13.316;2023-04-01T05:52:02;6.60;99.90
10660;DHT22;5378;53.206;13.316;2023-04-01T05:54:52;6.40;99.90
10660;DHT22;5378;53.206;13.316;2023-04-01T05:57:39;6.30;99.90
10660;DHT22;5378;53.206;13.316;2023-04-01T06:00:26;6.30;99.90
10660;DHT22;5378;53.206;13.316;2023-04-01T06:03:14;6.30;99.90
10660;DHT22;5378;53.206;13.316;2023-04-01T06:06:03;6.40;99.90
10660;DHT22;5378;53.206;13.316;2023-04-01T06:08:51;6.40;99.90
10660;DHT22;5378;53.206;13.316;2023-04-01T06:11:46;6.50;99.90
10660;DHT22;5378;53.206;13.316;2023-04-01T06:14:42;6.40;99.90
10660;DHT22;5378;53.206;13.316;2023-04-01T06:17:41;6.30;99.90
10660;DHT22;5378;53.206;13.316;2023-04-01T06:20:39;6.20;99.90
10660;DHT22;5378;53.206;13.316;2023-04-01T06:23:41;6.20;99.90
10660;DHT22;5378;53.206;13.316;2023-04-01T06:26:38;6.10;99.90
10660;DHT22;5378;53.206;13.316;2023-04-01T06:29:40;6.10;99.90
10660;DHT22;5378;53.206;13.316;2023-04-01T06:32:46;6.20;99.90
10660;DHT22;5378;53.206;13.316;2023-04-01T06:35:48;6.20;99.90
10660;DHT22;5378;53.206;13.316;2023-04-01T06:39:02;6.20;99.90
10660;DHT22;5378;53.206;13.316;2023-04-01T06:42:03;6.20;99.90
10660;DHT22;5378;53.206;13.316;2023-04-01T06:45:06;6.20;99.90
10660;DHT22;5378;53.206;13.316;2023-04-01T06:48:31;6.10;99.90
10660;DHT22;5378;53.206;13.316;2023-04-01T06:51:44;6.20;99.90
10660;DHT22;5378;53.206;13.316;2023-04-01T06:55:02;6.20;99.90
10660;DHT22;5378;53.206;13.316;2023-04-01T06:58:21;6.10;99.90
10660;DHT22;5378;53.206;13.316;2023-04-01T07:01:13;6.20;99.90
10660;DHT22;5378;53.206;13.316;2023-04-01T07:04:05;6.10;99.90
10660;DHT22;5378;53.206;13.316;2023-04-01T07:06:58;6.10;99.90
10660;DHT22;5378;53.206;13.316;2023-04-01T07:09:51;6.10;99.90
10660;DHT22;5378;53.206;13.316;2023-04-01T07:12:52;6.10;99.90
10660;DHT22;5378;53.206;13.316;2023-04-01T07:16:13;6.20;99.90
10660;DHT22;5378;53.206;13.316;2023-04-01T07:19:05;6.30;99.90
10660;DHT22;5378;53.206;13.316;2023-04-01T07:22:17;6.40;99.90
10660;DHT22;5378;53.206;13.316;2023-04-01T07:25:22;6.60;99.90
10660;DHT22;5378;53.206;13.316;2023-04-01T07:28:31;6.50;99.90
10660;DHT22;5378;53.206;13.316;2023-04-01T07:31:42;6.40;99.90
10660;DHT22;5378;53.206;13.316;2023-04-01T07:34:38;6.30;99.90
10660;DHT22;5378;53.206;13.316;2023-04-01T07:37:33;6.30;99.90
10660;DHT22;5378;53.206;13.316;2023-04-01T07:40:30;6.30;99.90
10660;DHT22;5378;53.206;13.316;2023-04-01T07:43:42;6.30;99.90
10660;DHT22;5378;53.206;13.316;2023-04-01T07:46:53;6.30;99.90
10660;DHT22;5378;53.206;13.316;2023-04-01T07:49:50;6.30;99.90
10660;DHT22;5378;53.206;13.316;2023-04-01T07:52:44;6.30;99.90
10660;DHT22;5378;53.206;13.316;2023-04-01T07:55:45;6.40;99.90
10660;DHT22;5378;53.206;13.316;2023-04-01T07:58:44;6.30;99.90
10660;DHT22;5378;53.206;13.316;2023-04-01T08:01:54;6.40;99.90
10660;DHT22;5378;53.206;13.316;2023-04-01T08:04:53;6.50;99.90
10660;DHT22;5378;53.206;13.316;2023-04-01T08:07:47;6.60;99.90
10660;DHT22;5378;53.206;13.316;2023-04-01T08:10:58;6.50;99.90
10660;DHT22;5378;53.206;13.316;2023-04-01T08:14:17;6.40;99.90
10660;DHT22;5378;53.206;13.316;2023-04-01T08:17:26;6.40;99.90
10660;DHT22;5378;53.206;13.316;2023-04-01T08:20:25;6.30;99.90
10660;DHT22;5378;53.206;13.316;2023-04-01T08:23:17;6.40;99.90
10660;DHT22;5378;53.206;13.316;2023-04-01T08:26:11;6.40;99.90
10660;DHT22;5378;53.206;13.316;2023-04-01T08:29:05;6.40;99.90
10660;DHT22;5378;53.206;13.316;2023-04-01T08:31:58;6.30;99.90
10660;DHT22;5378;53.206;13.316;2023-04-01T08:34:52;6.30;99.90
10660;DHT22;5378;53.206;13.316;2023-04-01T08:37:51;6.50;99.90
10660;DHT22;5378;53.206;13.316;2023-04-01T08:40:55;6.40;99.90
10660;DHT22;5378;53.206;13.316;2023-04-01T08:44:15;6.30;99.90
10660;DHT22;5378;53.206;13.316;2023-04-01T08:50:26;6.40;99.90
10660;DHT22;5378;53.206;13.316;2023-04-01T08:53:37;6.50;99.90
10660;DHT22;5378;53.206;13.316;2023-04-01T08:56:34;6.50;99.90
10660;DHT22;5378;53.206;13.316;2023-04-01T08:59:49;6.50;99.90
10660;DHT22;5378;53.206;13.316;2023-04-01T09:03:23;6.40;99.90
10660;DHT22;5378;53.206;13.316;2023-04-01T09:06:29;6.50;99.90
10660;DHT22;5378;53.206;13.316;2023-04-01T09:09:55;6.40;99.90
10660;DHT22;5378;53.206;13.316;2023-04-01T09:13:00;6.40;99.90
10660;DHT22;5378;53.206;13.316;2023-04-01T09:19:16;6.30;99.90
10660;DHT22;5378;53.206;13.316;2023-04-01T09:22:24;6.30;99.90
10660;DHT22;5378;53.206;13.316;2023-04-01T09:25:27;6.20;99.90
10660;DHT22;5378;53.206;13.316;2023-04-01T09:28:19;6.10;99.90
10660;DHT22;5378;53.206;13.316;2023-04-01T09:31:19;6.20;99.90
10660;DHT22;5378;53.206;13.316;2023-04-01T09:34:51;6.30;99.90
10660;DHT22;5378;53.206;13.316;2023-04-01T09:37:53;6.20;99.90
10660;DHT22;5378;53.206;13.316;2023-04-01T09:40:49;6.10;99.90
10660;DHT22;5378;53.206;13.316;2023-04-01T09:44:03;6.00;99.90
10660;DHT22;5378;53.206;13.316;2023-04-01T09:47:13;6.00;99.90
10660;DHT22;5378;53.206;13.316;2023-04-01T09:50:17;6.10;99.90
10660;DHT22;5378;53.206;13.316;2023-04-01T09:53:17;6.00;99.90
10660;DHT22;5378;53.206;13.316;2023-04-01T09:56:35;6.00;99.90
10660;DHT22;5378;53.206;13.316;2023-04-01T10:00:07;5.90;99.90
10660;DHT22;5378;53.206;13.316;2023-04-01T10:03:31;6.00;99.90
10660;DHT22;5378;53.206;13.316;2023-04-01T10:06:50;6.10;99.90
10660;DHT22;5378;53.206;13.316;2023-04-01T10:09:54;6.10;99.90
10660;DHT22;5378;53.206;13.316;2023-04-01T10:16:28;6.10;99.90
10660;DHT22;5378;53.206;13.316;2023-04-01T10:26:32;5.90;99.90
10660;DHT22;5378;53.206;13.316;2023-04-01T10:36:53;5.80;99.90
10660;DHT22;5378;53.206;13.316;2023-04-01T10:40:15;5.80;99.90
10660;DHT22;5378;53.206;13.316;2023-04-01T10:43:51;5.80;99.90
10660;DHT22;5378;53.206;13.316;2023-04-01T10:50:24;5.80;99.90
10660;DHT22;5378;53.206;13.316;2023-04-01T10:53:34;5.70;99.90
10660;DHT22;5378;53.206;13.316;2023-04-01T10:56:51;5.70;99.90
10660;DHT22;5378;53.206;13.316;2023-04-01T11:00:15;5.80;99.90
10660;DHT22;5378;53.206;13.316;2023-04-01T11:04:13;5.80;99.90
10660;DHT22;5378;53.206;13.316;2023-04-01T11:08:15;5.80;99.90
10660;DHT22;5378;53.206;13.316;2023-04-01T11:14:48;5.80;99.90
10660;DHT22;5378;53.206;13.316;2023-04-01T11:18:04;5.90;99.90
10660;DHT22;5378;53.206;13.316;2023-04-01T11:21:15;6.00;99.90
10660;DHT22;5378;53.206;13.316;2023-04-01T11:24:19;5.90;99.90
10660;DHT22;5378;53.206;13.316;2023-04-01T11:27:42;5.80;99.90
10660;DHT22;5378;53.206;13.316;2023-04-01T11:30:53;5.70;99.90
10660;DHT22;5378;53.206;13.316;2023-04-01T11:33:46;5.60;99.90
10660;DHT22;5378;53.206;13.316;2023-04-01T11:36:42;5.50;99.90
10660;DHT22;5378;53.206;13.316;2023-04-01T11:39:41;5.60;99.90
10660;DHT22;5378;53.206;13.316;2023-04-01T11:43:00;5.60;99.90
10660;DHT22;5378;53.206;13.316;2023-04-01T11:46:10;5.50;99.90
10660;DHT22;5378;53.206;13.316;2023-04-01T11:49:06;5.40;99.90
10660;DHT22;5378;53.206;13.316;2023-04-01T11:52:18;5.30;99.90
10660;DHT22;5378;53.206;13.316;2023-04-01T11:55:19;5.30;99.90
10660;DHT22;5378;53.206;13.316;2023-04-01T11:58:31;5.30;99.90
10660;DHT22;5378;53.206;13.316;2023-04-01T12:01:29;5.30;99.90
10660;DHT22;5378;53.206;13.316;2023-04-01T12:04:55;5.20;99.90
10660;DHT22;5378;53.206;13.316;2023-04-01T12:07:53;5.30;99.90
10660;DHT22;5378;53.206;13.316;2023-04-01T12:10:47;5.30;99.90
10660;DHT22;5378;53.206;13.316;2023-04-01T12:13:42;5.30;99.90
10660;DHT22;5378;53.206;13.316;2023-04-01T12:16:45;5.30;99.90
10660;DHT22;5378;53.206;13.316;2023-04-01T12:19:40;5.30;99.90
10660;DHT22;5378;53.206;13.316;2023-04-01T12:22:38;5.40;99.90
10660;DHT22;5378;53.206;13.316;2023-04-01T12:25:45;5.60;99.90
10660;DHT22;5378;53.206;13.316;2023-04-01T12:28:46;5.60;99.90
10660;DHT22;5378;53.206;13.316;2023-04-01T12:31:45;5.50;99.90
10660;DHT22;5378;53.206;13.316;2023-04-01T12:34:52;5.50;99.90
10660;DHT22;5378;53.206;13.316;2023-04-01T12:37:50;5.40;99.90
10660;DHT22;5378;53.206;13.316;2023-04-01T12:40:46;5.40;99.90
10660;DHT22;5378;53.206;13.316;2023-04-01T12:44:06;5.50;99.90
10660;DHT22;5378;53.206;13.316;2023-04-01T12:47:11;5.30;99.90
10660;DHT22;5378;53.206;13.316;2023-04-01T12:50:23;5.20;99.90
10660;DHT22;5378;53.206;13.316;2023-04-01T12:53:30;5.20;99.90
10660;DHT22;5378;53.206;13.316;2023-04-01T12:56:29;5.30;99.90
10660;DHT22;5378;53.206;13.316;2023-04-01T12:59:32;5.40;99.90
10660;DHT22;5378;53.206;13.316;2023-04-01T13:02:36;5.40;99.90
10660;DHT22;5378;53.206;13.316;2023-04-01T13:05:44;5.50;99.90
10660;DHT22;5378;53.206;13.316;2023-04-01T13:08:41;5.60;99.90
10660;DHT22;5378;53.206;13.316;2023-04-01T13:11:36;5.50;99.90
10660;DHT22;5378;53.206;13.316;2023-04-01T13:14:49;5.60;99.90
10660;DHT22;5378;53.206;13.316;2023-04-01T13:17:47;5.40;99.90
10660;DHT22;5378;53.206;13.316;2023-04-01T13:20:44;5.40;99.90
10660;DHT22;5378;53.206;13.316;2023-04-01T13:23:49;5.30;99.90
10660;DHT22;5378;53.206;13.316;2023-04-01T13:26:41;5.30;99.90
10660;DHT22;5378;53.206;13.316;2023-04-01T13:29:38;5.30;99.90
10660;DHT22;5378;53.206;13.316;2023-04-01T13:32:32;5.30;99.90
10660;DHT22;5378;53.206;13.316;2023-04-01T13:35:33;5.40;99.90
10660;DHT22;5378;53.206;13.316;2023-04-01T13:38:44;5.40;99.90
10660;DHT22;5378;53.206;13.316;2023-04-01T13:41:45;5.40;99.90
10660;DHT22;5378;53.206;13.316;2023-04-01T13:44:39;5.30;99.90
10660;DHT22;5378;53.206;13.316;2023-04-01T13:47:52;5.20;99.90
10660;DHT22;5378;53.206;13.316;2023-04-01T13:51:08;5.10;99.90
10660;DHT22;5378;53.206;13.316;2023-04-01T13:57:38;5.00;99.90
10660;DHT22;5378;53.206;13.316;2023-04-01T14:00:38;5.10;99.90
10660;DHT22;5378;53.206;13.316;2023-04-01T14:03:37;5.20;99.90
10660;DHT22;5378;53.206;13.316;2023-04-01T14:06:40;5.20;99.90
10660;DHT22;5378;53.206;13.316;2023-04-01T14:09:44;5.20;99.90
10660;DHT22;5378;53.206;13.316;2023-04-01T14:12:39;5.10;99.90
10660;DHT22;5378;53.206;13.316;2023-04-01T14:15:48;5.10;99.90
10660;DHT22;5378;53.206;13.316;2023-04-01T14:18:48;5.10;99.90
10660;DHT22;5378;53.206;13.316;2023-04-01T14:21:46;5.10;99.90
10660;DHT22;5378;53.206;13.316;2023-04-01T14:24:57;5.00;99.90
10660;DHT22;5378;53.206;13.316;2023-04-01T14:27:56;5.00;99.90
10660;DHT22;5378;53.206;13.316;2023-04-01T14:31:04;4.90;99.90
10660;DHT22;5378;53.206;13.316;2023-04-01T14:34:08;4.80;99.90
10660;DHT22;5378;53.206;13.316;2023-04-01T14:37:19;4.80;99.90
10660;DHT22;5378;53.206;13.316;2023-04-01T14:40:21;4.70;99.90
10660;DHT22;5378;53.206;13.316;2023-04-01T14:43:48;4.60;99.90
10660;DHT22;5378;53.206;13.316;2023-04-01T14:47:04;4.60;99.90
10660;DHT22;5378;53.206;13.316;2023-04-01T14:50:03;4.70;99.90
10660;DHT22;5378;53.206;13.316;2023-04-01T14:52:58;4.60;99.90
10660;DHT22;5378;53.206;13.316;2023-04-01T14:55:50;4.60;99.90
10660;DHT22;5378;53.206;13.316;2023-04-01T14:58:44;4.50;99.90
10660;DHT22;5378;53.206;13.316;2023-04-01T15:01:36;4.50;99.90
10660;DHT22;5378;53.206;13.316;2023-04-01T15:04:41;4.50;99.90
10660;DHT22;5378;53.206;13.316;2023-04-01T15:07:52;4.40;99.90
10660;DHT22;5378;53.206;13.316;2023-04-01T15:11:13;4.30;99.90
10660;DHT22;5378;53.206;13.316;2023-04-01T15:14:16;4.30;99.90
10660;DHT22;5378;53.206;13.316;2023-04-01T15:17:23;4.30;99.90
10660;DHT22;5378;53.206;13.316;2023-04-01T15:20:25;4.20;99.90
10660;DHT22;5378;53.206;13.316;2023-04-01T15:23:25;4.10;99.90
10660;DHT22;5378;53.206;13.316;2023-04-01T15:26:24;4.20;99.90
10660;DHT22;5378;53.206;13.316;2023-04-01T15:29:36;4.30;99.90
10660;DHT22;5378;53.206;13.316;2023-04-01T15:32:29;4.30;99.90
10660;DHT22;5378;53.206;13.316;2023-04-01T15:35:29;4.30;99.90
10660;DHT22;5378;53.206;13.316;2023-04-01T15:38:27;4.20;99.90
10660;DHT22;5378;53.206;13.316;2023-04-01T15:41:24;4.20;99.90
10660;DHT22;5378;53.206;13.316;2023-04-01T15:44:44;4.00;99.90
10660;DHT22;5378;53.206;13.316;2023-04-01T15:47:42;4.00;99.90
10660;DHT22;5378;53.206;13.316;2023-04-01T15:50:51;4.00;99.90
10660;DHT22;5378;53.206;13.316;2023-04-01T15:54:04;4.00;99.90
10660;DHT22;5378;53.206;13.316;2023-04-01T15:57:21;4.00;99.90
10660;DHT22;5378;53.206;13.316;2023-04-01T16:00:23;4.00;99.90
10660;DHT22;5378;53.206;13.316;2023-04-01T16:03:22;4.00;99.90
10660;DHT22;5378;53.206;13.316;2023-04-01T16:06:22;4.00;99.90
10660;DHT22;5378;53.206;13.316;2023-04-01T16:09:30;3.90;99.90
10660;DHT22;5378;53.206;13.316;2023-04-01T16:12:39;3.90;99.90
10660;DHT22;5378;53.206;13.316;2023-04-01T16:15:38;3.80;99.90
10660;DHT22;5378;53.206;13.316;2023-04-01T16:18:39;3.80;99.90
10660;DHT22;5378;53.206;13.316;2023-04-01T16:21:37;3.80;99.90
10660;DHT22;5378;53.206;13.316;2023-04-01T16:24:34;3.80;99.90
10660;DHT22;5378;53.206;13.316;2023-04-01T16:27:29;3.80;99.90
10660;DHT22;5378;53.206;13.316;2023-04-01T16:30:32;3.70;99.90
10660;DHT22;5378;53.206;13.316;2023-04-01T16:33:22;3.80;99.90
10660;DHT22;5378;53.206;13.316;2023-04-01T16:36:22;3.80;99.90
10660;DHT22;5378;53.206;13.316;2023-04-01T16:39:27;3.80;99.90
10660;DHT22;5378;53.206;13.316;2023-04-01T16:42:24;3.70;99.90
10660;DHT22;5378;53.206;13.316;2023-04-01T16:45:24;3.70;99.90
10660;DHT22;5378;53.206;13.316;2023-04-01T16:48:14;3.70;99.90
10660;DHT22;5378;53.206;13.316;2023-04-01T16:51:04;3.70;99.90
10660;DHT22;5378;53.206;13.316;2023-04-01T16:54:04;3.80;99.90
10660;DHT22;5378;53.206;13.316;2023-04-01T16:56:55;3.70;99.90
10660;DHT22;5378;53.206;13.316;2023-04-01T16:59:47;3.70;99.90
10660;DHT22;5378;53.206;13.316;2023-04-01T17:02:47;3.70;99.90
10660;DHT22;5378;53.206;13.316;2023-04-01T17:05:43;3.60;99.90
10660;DHT22;5378;53.206;13.316;2023-04-01T17:08:45;3.60;99.90
10660;DHT22;5378;53.206;13.316;2023-04-01T17:11:41;3.60;99.90
10660;DHT22;5378;53.206;13.316;2023-04-01T17:14:37;3.60;99.90
10660;DHT22;5378;53.206;13.316;2023-04-01T17:17:36;3.60;99.90
10660;DHT22;5378;53.206;13.316;2023-04-01T17:20:32;3.60;99.90
10660;DHT22;5378;53.206;13.316;2023-04-01T17:23:28;3.60;99.90
10660;DHT22;5378;53.206;13.316;2023-04-01T17:26:26;3.70;99.90
10660;DHT22;5378;53.206;13.316;2023-04-01T17:29:22;3.70;99.90
10660;DHT22;5378;53.206;13.316;2023-04-01T17:32:15;3.70;99.90
10660;DHT22;5378;53.206;13.316;2023-04-01T17:35:08;3.70;99.90
10660;DHT22;5378;53.206;13.316;2023-04-01T17:38:07;3.70;99.90
10660;DHT22;5378;53.206;13.316;2023-04-01T17:41:04;3.80;99.90
10660;DHT22;5378;53.206;13.316;2023-04-01T17:44:01;3.80;99.90
10660;DHT22;5378;53.206;13.316;2023-04-01T17:50:17;3.90;99.90
10660;DHT22;5378;53.206;13.316;2023-04-01T17:53:19;3.80;99.90
10660;DHT22;5378;53.206;13.316;2023-04-01T17:56:15;3.70;99.90
10660;DHT22;5378;53.206;13.316;2023-04-01T17:59:10;3.70;99.90
10660;DHT22;5378;53.206;13.316;2023-04-01T18:02:06;3.80;99.90
10660;DHT22;5378;53.206;13.316;2023-04-01T18:05:13;3.80;99.90
10660;DHT22;5378;53.206;13.316;2023-04-01T18:08:13;3.70;99.90
10660;DHT22;5378;53.206;13.316;2023-04-01T18:11:11;3.70;99.90
10660;DHT22;5378;53.206;13.316;2023-04-01T18:14:11;3.80;99.90
10660;DHT22;5378;53.206;13.316;2023-04-01T18:17:18;3.80;99.90
10660;DHT22;5378;53.206;13.316;2023-04-01T18:20:18;3.80;99.90
10660;DHT22;5378;53.206;13.316;2023-04-01T18:23:19;3.80;99.90
10660;DHT22;5378;53.206;13.316;2023-04-01T18:26:12;3.70;99.90
10660;DHT22;5378;53.206;13.316;2023-04-01T18:29:10;3.70;99.90
10660;DHT22;5378;53.206;13.316;2023-04-01T18:32:08;3.70;99.90
10660;DHT22;5378;53.206;13.316;2023-04-01T18:35:12;3.60;99.90
10660;DHT22;5378;53.206;13.316;2023-04-01T18:38:11;3.60;99.90
10660;DHT22;5378;53.206;13.316;2023-04-01T18:41:12;3.70;99.90
10660;DHT22;5378;53.206;13.316;2023-04-01T18:44:22;3.70;99.90
10660;DHT22;5378;53.206;13.316;2023-04-01T18:47:23;3.70;99.90
10660;DHT22;5378;53.206;13.316;2023-04-01T18:50:18;3.70;99.90
10660;DHT22;5378;53.206;13.316;2023-04-01T18:53:19;3.60;99.90
10660;DHT22;5378;53.206;13.316;2023-04-01T18:56:11;3.60;99.90
10660;DHT22;5378;53.206;13.316;2023-04-01T18:59:05;3.60;99.90
10660;DHT22;5378;53.206;13.316;2023-04-01T19:02:02;3.60;99.90
10660;DHT22;5378;53.206;13.316;2023-04-01T19:04:56;3.50;99.90
10660;DHT22;5378;53.206;13.316;2023-04-01T19:07:46;3.50;99.90
10660;DHT22;5378;53.206;13.316;2023-04-01T19:10:42;3.50;99.90
10660;DHT22;5378;53.206;13.316;2023-04-01T19:13:42;3.40;99.90
10660;DHT22;5378;53.206;13.316;2023-04-01T19:16:42;3.50;99.90
10660;DHT22;5378;53.206;13.316;2023-04-01T19:19:42;3.50;99.90
10660;DHT22;5378;53.206;13.316;2023-04-01T19:22:43;3.50;99.90
10660;DHT22;5378;53.206;13.316;2023-04-01T19:25:36;3.50;99.90
10660;DHT22;5378;53.206;13.316;2023-04-01T19:28:32;3.50;99.90
10660;DHT22;5378;53.206;13.316;2023-04-01T19:31:55;3.50;99.90
10660;DHT22;5378;53.206;13.316;2023-04-01T19:34:52;3.50;99.90
10660;DHT22;5378;53.206;13.316;2023-04-01T19:37:50;3.40;99.90
10660;DHT22;5378;53.206;13.316;2023-04-01T19:40:46;3.50;99.90
10660;DHT22;5378;53.206;13.316;2023-04-01T19:43:47;3.60;99.90
10660;DHT22;5378;53.206;13.316;2023-04-01T19:46:44;3.60;99.90